Time;durP1;ratioP1;P1;durP2;ratioP2;P2;SDS_P1;SDS_P2;PMS_P1;PMS_P2;Temp;Humidity;BMP_temperature;BMP_pressure;BME280_temperature;BME280_humidity;BME280_pressure;Samples;Min_cycle;Max_cycle;Signal;HPM_P1;HPM_P2
2023/09/17 00:00:53;;;;;;;5.53;3.00;;;10.50;99.90;;;;;;4924972;29;20205;-88
2023/09/17 00:03:21;;;;;;;7.53;2.88;;;10.60;99.90;;;;;;4923202;29;20273;-90
2023/09/17 00:05:49;;;;;;;5.97;3.25;;;10.60;99.90;;;;;;4944125;29;20220;-89
2023/09/17 00:08:18;;;;;;;4.03;2.78;;;10.80;99.90;;;;;;4916873;29;20249;-88
2023/09/17 00:10:45;;;;;;;6.10;3.55;;;10.80;99.90;;;;;;4934063;29;20181;-88
2023/09/17 00:13:13;;;;;;;6.80;3.30;;;11.00;99.90;;;;;;4933815;29;20218;-89
2023/09/17 00:15:41;;;;;;;7.63;3.65;;;10.90;99.90;;;;;;4918303;29;20673;-88
2023/09/17 00:18:08;;;;;;;7.10;3.72;;;11.00;99.90;;;;;;4929132;29;20205;-87
2023/09/17 00:20:36;;;;;;;7.13;2.97;;;11.00;99.90;;;;;;4934508;29;20680;-88
2023/09/17 00:23:04;;;;;;;4.50;2.90;;;11.00;99.90;;;;;;4909684;29;20216;-88
2023/09/17 00:25:32;;;;;;;5.60;3.05;;;11.00;99.90;;;;;;4930106;29;20226;-87
2023/09/17 00:27:59;;;;;;;5.70;2.63;;;11.00;99.90;;;;;;4915851;29;20842;-88
2023/09/17 00:30:28;;;;;;;8.27;3.40;;;11.00;99.90;;;;;;4916597;29;20198;-91
2023/09/17 00:32:55;;;;;;;7.15;3.80;;;10.90;99.90;;;;;;4919917;29;20291;-89
2023/09/17 00:35:23;;;;;;;6.32;3.60;;;10.90;99.90;;;;;;4928729;29;20200;-89
2023/09/17 00:37:51;;;;;;;8.38;3.75;;;10.90;99.90;;;;;;4926311;29;20216;-90
2023/09/17 00:40:23;;;;;;;6.22;3.55;;;10.90;99.90;;;;;;4911962;29;20601;-88
2023/09/17 00:42:51;;;;;;;10.15;4.53;;;10.90;99.90;;;;;;4925405;29;20220;-88
2023/09/17 00:45:18;;;;;;;4.95;3.42;;;10.90;99.90;;;;;;4923685;29;20194;-89
2023/09/17 00:47:46;;;;;;;6.88;3.70;;;10.90;99.90;;;;;;4930515;29;20824;-88
2023/09/17 00:50:14;;;;;;;7.22;4.03;;;11.00;99.90;;;;;;4940744;29;20200;-89
2023/09/17 00:52:42;;;;;;;6.55;4.25;;;11.00;99.90;;;;;;4924839;29;20723;-88
2023/09/17 00:55:09;;;;;;;4.32;3.10;;;11.00;99.90;;;;;;4924228;29;20249;-89
2023/09/17 00:57:41;;;;;;;6.80;3.40;;;11.00;99.90;;;;;;4930359;29;20216;-88
2023/09/17 01:00:09;;;;;;;6.05;3.30;;;10.90;99.90;;;;;;4930713;29;20748;-89
2023/09/17 01:02:37;;;;;;;7.80;3.88;;;10.90;99.90;;;;;;4915319;29;20224;-88
2023/09/17 01:05:06;;;;;;;6.05;3.42;;;10.90;99.90;;;;;;4915569;29;20288;-89
2023/09/17 01:07:34;;;;;;;6.82;4.10;;;10.90;99.90;;;;;;4897781;29;20210;-89
2023/09/17 01:10:02;;;;;;;5.32;3.53;;;11.00;99.90;;;;;;4914090;29;20210;-86
2023/09/17 01:12:31;;;;;;;6.25;3.67;;;10.90;99.90;;;;;;4921383;29;20197;-87
2023/09/17 01:14:59;;;;;;;6.68;4.15;;;10.90;99.90;;;;;;4921880;29;20189;-87
2023/09/17 01:17:27;;;;;;;5.80;3.80;;;10.70;99.90;;;;;;4920355;29;20193;-87
2023/09/17 01:19:56;;;;;;;9.63;3.63;;;10.60;99.90;;;;;;4931473;29;20193;-87
2023/09/17 01:22:38;;;;;;;6.65;3.72;;;10.70;99.90;;;;;;4923843;29;20204;-87
2023/09/17 01:25:32;;;;;;;8.77;4.20;;;10.60;99.90;;;;;;4911999;29;20204;-86
2023/09/17 01:28:01;;;;;;;6.03;3.83;;;10.50;99.90;;;;;;4891923;29;20315;-89
2023/09/17 01:30:29;;;;;;;7.47;3.53;;;10.50;99.90;;;;;;4913888;29;20248;-88
2023/09/17 01:32:56;;;;;;;8.10;4.13;;;10.30;99.90;;;;;;4912670;29;20210;-88
2023/09/17 01:35:24;;;;;;;7.72;4.35;;;10.30;99.90;;;;;;4921368;29;20202;-87
2023/09/17 01:37:55;;;;;;;6.15;3.63;;;10.30;99.90;;;;;;4914311;29;20256;-87
2023/09/17 01:40:23;;;;;;;8.85;3.83;;;10.40;99.90;;;;;;4911936;29;20229;-87
2023/09/17 01:42:53;;;;;;;8.52;4.55;;;10.50;99.90;;;;;;4898132;29;20190;-86
2023/09/17 01:45:22;;;;;;;9.30;4.65;;;10.40;99.90;;;;;;4921727;29;20291;-86
2023/09/17 01:47:50;;;;;;;4.47;3.20;;;10.50;99.90;;;;;;4907183;29;20754;-87
2023/09/17 01:50:19;;;;;;;4.85;3.70;;;10.30;99.90;;;;;;4928565;29;20572;-86
2023/09/17 01:52:46;;;;;;;6.97;3.75;;;10.30;99.90;;;;;;4919308;29;20205;-87
2023/09/17 01:55:14;;;;;;;11.25;3.97;;;10.40;99.90;;;;;;4925426;29;20248;-87
2023/09/17 01:57:42;;;;;;;5.97;3.63;;;10.40;99.90;;;;;;4917911;29;20928;-89
2023/09/17 02:00:16;;;;;;;7.40;3.47;;;10.40;99.90;;;;;;4921114;29;20240;-87
2023/09/17 02:02:48;;;;;;;5.72;3.88;;;10.30;99.90;;;;;;4917949;29;20200;-88
2023/09/17 02:05:16;;;;;;;4.93;2.80;;;10.30;99.90;;;;;;4929045;29;20186;-88
2023/09/17 02:07:44;;;;;;;5.70;3.97;;;10.20;99.90;;;;;;4920358;29;20214;-86
2023/09/17 02:10:12;;;;;;;6.88;3.92;;;10.20;99.90;;;;;;4919771;29;20205;-87
2023/09/17 02:12:40;;;;;;;5.85;3.50;;;10.20;99.90;;;;;;4918707;29;20190;-86
2023/09/17 02:15:11;;;;;;;6.90;3.90;;;10.20;99.90;;;;;;4906752;29;20208;-87
2023/09/17 02:17:39;;;;;;;7.13;3.47;;;10.20;99.90;;;;;;4919845;29;20205;-88
2023/09/17 02:20:11;;;;;;;8.05;4.55;;;10.10;99.90;;;;;;4923689;29;20272;-87
2023/09/17 02:22:39;;;;;;;6.13;3.80;;;10.00;99.90;;;;;;4910143;29;20211;-89
2023/09/17 02:25:08;;;;;;;5.97;3.90;;;9.90;99.90;;;;;;4912660;29;20193;-90
2023/09/17 02:27:36;;;;;;;5.65;3.50;;;9.90;99.90;;;;;;4909041;29;20308;-88
2023/09/17 02:30:04;;;;;;;9.15;4.38;;;10.00;99.90;;;;;;4910496;29;20657;-87
2023/09/17 02:32:32;;;;;;;4.40;2.80;;;10.10;99.90;;;;;;4923670;29;20542;-88
2023/09/17 02:35:00;;;;;;;7.70;4.07;;;10.10;99.90;;;;;;4917670;29;20196;-87
2023/09/17 02:37:27;;;;;;;8.32;4.55;;;10.20;99.90;;;;;;4908741;29;20197;-89
2023/09/17 02:39:55;;;;;;;8.23;4.47;;;10.10;99.90;;;;;;4933801;28;21396;-87
2023/09/17 02:42:23;;;;;;;7.05;4.28;;;10.10;99.90;;;;;;4932411;29;20204;-88
2023/09/17 02:44:50;;;;;;;6.43;4.15;;;10.10;99.90;;;;;;4952580;28;20251;-88
2023/09/17 02:47:19;;;;;;;7.38;4.05;;;10.10;99.90;;;;;;4937415;28;20212;-88
2023/09/17 02:49:47;;;;;;;5.88;3.92;;;10.10;99.90;;;;;;4948293;29;20193;-88
2023/09/17 02:52:15;;;;;;;7.65;4.25;;;10.10;99.90;;;;;;4944169;29;20195;-89
2023/09/17 02:54:43;;;;;;;6.28;4.05;;;10.00;99.90;;;;;;4937261;28;20658;-88
2023/09/17 02:57:10;;;;;;;8.60;4.50;;;10.00;99.90;;;;;;4947984;29;20646;-86
2023/09/17 02:59:38;;;;;;;5.53;3.58;;;9.90;99.90;;;;;;4942271;29;20204;-87
2023/09/17 03:02:05;;;;;;;9.60;4.75;;;10.10;99.90;;;;;;4922086;29;20683;-87
2023/09/17 03:04:33;;;;;;;5.40;3.80;;;10.00;99.90;;;;;;4944235;29;20275;-86
2023/09/17 03:07:01;;;;;;;7.32;4.05;;;9.90;99.90;;;;;;4925496;29;20715;-86
2023/09/17 03:09:29;;;;;;;8.00;4.75;;;10.00;99.90;;;;;;4943616;29;20192;-86
2023/09/17 03:11:57;;;;;;;7.40;4.03;;;9.90;99.90;;;;;;4950278;28;20670;-87
2023/09/17 03:14:25;;;;;;;7.25;4.88;;;9.90;99.90;;;;;;4936784;29;20288;-86
2023/09/17 03:16:53;;;;;;;5.68;4.10;;;9.90;99.90;;;;;;4925613;29;20196;-87
2023/09/17 03:19:21;;;;;;;6.90;3.72;;;9.70;99.90;;;;;;4922336;28;20213;-88
2023/09/17 03:21:48;;;;;;;6.68;4.03;;;9.80;99.90;;;;;;4936825;29;20687;-87
2023/09/17 03:24:16;;;;;;;6.15;3.83;;;9.60;99.90;;;;;;4948435;29;20207;-87
2023/09/17 03:26:44;;;;;;;6.97;3.80;;;9.40;99.90;;;;;;4926448;29;20281;-89
2023/09/17 03:29:12;;;;;;;9.13;4.20;;;9.40;99.90;;;;;;4947261;28;20212;-86
2023/09/17 03:31:41;;;;;;;9.20;4.78;;;9.50;99.90;;;;;;4928179;29;20236;-88
2023/09/17 03:34:11;;;;;;;9.60;4.43;;;9.60;99.90;;;;;;4948065;28;20672;-89
2023/09/17 03:36:38;;;;;;;7.57;4.55;;;9.60;99.90;;;;;;4955758;28;20947;-89
2023/09/17 03:39:08;;;;;;;8.25;4.47;;;9.70;99.90;;;;;;4947350;28;20843;-90
2023/09/17 03:41:40;;;;;;;10.10;5.07;;;9.70;99.90;;;;;;4931401;29;20240;-89
2023/09/17 03:44:14;;;;;;;6.47;4.10;;;9.70;99.90;;;;;;4915401;29;20193;-88
2023/09/17 03:46:42;;;;;;;7.28;4.13;;;9.60;99.90;;;;;;4917946;29;20194;-88
2023/09/17 03:49:10;;;;;;;6.78;4.20;;;9.60;99.90;;;;;;4930635;29;20231;-88
2023/09/17 03:51:37;;;;;;;8.77;4.50;;;9.60;99.90;;;;;;4922521;29;20229;-87
2023/09/17 03:54:05;;;;;;;8.38;5.05;;;9.50;99.90;;;;;;4905173;29;20567;-87
2023/09/17 03:56:33;;;;;;;7.25;4.55;;;9.50;99.90;;;;;;4923581;29;20194;-88
2023/09/17 03:59:00;;;;;;;8.32;5.05;;;9.60;99.90;;;;;;4910102;29;20284;-89
2023/09/17 04:01:29;;;;;;;6.97;4.68;;;9.70;99.90;;;;;;4906227;29;20214;-88
2023/09/17 04:03:56;;;;;;;9.63;5.10;;;9.50;99.90;;;;;;4908138;29;20197;-89
2023/09/17 04:06:25;;;;;;;8.80;4.78;;;9.40;99.90;;;;;;4923310;29;20221;-89
2023/09/17 04:08:52;;;;;;;8.50;4.88;;;9.50;99.90;;;;;;4926464;29;20297;-88
2023/09/17 04:11:20;;;;;;;7.03;4.60;;;9.50;99.90;;;;;;4920995;29;20186;-86
2023/09/17 04:13:48;;;;;;;9.55;5.28;;;9.50;99.90;;;;;;4923409;29;20198;-88
2023/09/17 04:16:20;;;;;;;5.85;3.92;;;9.40;99.90;;;;;;4929211;29;20194;-88
2023/09/17 04:18:50;;;;;;;9.27;4.88;;;9.40;99.90;;;;;;4922780;29;20269;-88
2023/09/17 04:21:18;;;;;;;7.30;4.70;;;9.50;99.90;;;;;;4924753;29;20193;-87
2023/09/17 04:23:45;;;;;;;9.05;4.82;;;9.60;99.90;;;;;;4926090;29;20253;-87
2023/09/17 04:26:13;;;;;;;7.60;5.05;;;9.50;99.90;;;;;;4926822;29;20194;-89
2023/09/17 04:28:42;;;;;;;10.50;5.40;;;9.40;99.90;;;;;;4927506;29;20235;-88
2023/09/17 04:31:10;;;;;;;8.85;4.68;;;9.30;99.90;;;;;;4919127;29;20205;-91
2023/09/17 04:33:38;;;;;;;9.18;4.82;;;9.40;99.90;;;;;;4916758;29;20284;-91
2023/09/17 04:36:06;;;;;;;8.05;4.93;;;9.60;99.90;;;;;;4907840;29;20249;-89
2023/09/17 04:38:34;;;;;;;8.00;4.68;;;9.60;99.90;;;;;;4930806;29;20256;-89
2023/09/17 04:41:03;;;;;;;9.25;5.38;;;9.60;99.90;;;;;;4924928;29;20234;-89
2023/09/17 04:43:31;;;;;;;11.68;5.40;;;9.50;99.90;;;;;;4927134;29;20205;-91
2023/09/17 04:46:00;;;;;;;7.57;4.55;;;9.40;99.90;;;;;;4920516;29;20206;-90
2023/09/17 04:48:31;;;;;;;12.10;4.95;;;9.50;99.90;;;;;;4907112;29;20274;-90
2023/09/17 04:50:59;;;;;;;7.20;5.00;;;9.40;99.90;;;;;;4916669;29;20196;-90
2023/09/17 04:53:27;;;;;;;8.10;5.18;;;9.40;99.90;;;;;;4904575;29;20197;-90
2023/09/17 04:55:55;;;;;;;9.13;5.10;;;9.40;99.90;;;;;;4901711;29;20667;-91
2023/09/17 04:58:29;;;;;;;8.55;5.97;;;9.50;99.90;;;;;;4906289;29;20207;-91
2023/09/17 05:00:59;;;;;;;10.52;5.75;;;9.40;99.90;;;;;;4903648;29;20220;-92
2023/09/17 05:03:27;;;;;;;9.65;5.13;;;9.50;99.90;;;;;;4933524;29;20672;-90
2023/09/17 05:05:55;;;;;;;8.57;5.70;;;9.60;99.90;;;;;;4926420;29;20190;-91
2023/09/17 05:08:24;;;;;;;9.43;5.18;;;9.50;99.90;;;;;;4922024;29;20270;-91
2023/09/17 05:10:52;;;;;;;7.97;5.47;;;9.60;99.90;;;;;;4899838;29;20186;-91
2023/09/17 05:13:22;;;;;;;9.95;5.28;;;9.50;99.90;;;;;;4910867;29;20964;-91
2023/09/17 05:15:51;;;;;;;7.45;4.60;;;9.50;99.90;;;;;;4929439;29;20679;-91
2023/09/17 05:18:19;;;;;;;7.22;4.82;;;9.60;99.90;;;;;;4925850;29;20250;-91
2023/09/17 05:20:49;;;;;;;11.57;5.38;;;9.60;99.90;;;;;;4917653;29;20204;-90
2023/09/17 05:23:17;;;;;;;8.02;4.63;;;9.60;99.90;;;;;;4905249;29;20221;-91
2023/09/17 05:25:48;;;;;;;7.80;5.05;;;9.70;99.90;;;;;;4903718;29;20194;-90
2023/09/17 05:28:16;;;;;;;8.68;4.80;;;9.70;99.90;;;;;;4931741;29;20300;-92
2023/09/17 05:30:44;;;;;;;11.05;4.80;;;9.70;99.90;;;;;;4919372;29;20201;-89
2023/09/17 05:33:17;;;;;;;8.73;5.18;;;9.80;99.90;;;;;;4920474;29;20207;-92
2023/09/17 05:35:47;;;;;;;9.27;5.45;;;9.90;99.90;;;;;;4920582;29;20193;-92
2023/09/17 05:38:16;;;;;;;10.05;5.70;;;9.90;99.90;;;;;;4919902;29;20724;-92
2023/09/17 05:40:44;;;;;;;8.13;5.65;;;9.90;99.90;;;;;;4935705;29;20224;-92
2023/09/17 05:43:12;;;;;;;10.38;6.07;;;9.70;99.90;;;;;;4919170;29;20555;-92
2023/09/17 05:45:42;;;;;;;9.35;5.15;;;9.80;99.90;;;;;;4931707;29;20269;-91
2023/09/17 05:48:09;;;;;;;9.48;5.57;;;9.80;99.90;;;;;;4931983;29;20232;-90
2023/09/17 05:50:38;;;;;;;10.07;5.78;;;9.70;99.90;;;;;;4931843;29;20193;-90
2023/09/17 05:53:06;;;;;;;9.13;5.07;;;9.60;99.90;;;;;;4917088;29;20189;-92
2023/09/17 05:55:41;;;;;;;9.48;4.70;;;9.70;99.90;;;;;;4917393;29;20197;-89
2023/09/17 05:58:08;;;;;;;9.00;5.72;;;9.80;99.90;;;;;;4932772;29;20202;-91
2023/09/17 06:00:36;;;;;;;11.95;5.28;;;9.80;99.90;;;;;;4933701;29;20657;-91
2023/09/17 06:03:04;;;;;;;9.70;5.25;;;9.80;99.90;;;;;;4916986;29;20200;-88
2023/09/17 06:05:32;;;;;;;9.60;5.32;;;9.80;99.90;;;;;;4932207;29;20972;-90
2023/09/17 06:08:00;;;;;;;9.10;5.57;;;9.80;99.90;;;;;;4951355;28;20288;-89
2023/09/17 06:10:27;;;;;;;6.93;4.82;;;9.90;99.90;;;;;;4927545;29;20200;-88
2023/09/17 06:12:55;;;;;;;8.85;4.72;;;10.00;99.90;;;;;;4933082;29;20198;-91
2023/09/17 06:15:22;;;;;;;8.93;5.53;;;10.00;99.90;;;;;;4914210;29;20186;-88
2023/09/17 06:17:51;;;;;;;9.20;6.20;;;10.00;99.90;;;;;;4923953;29;20248;-88
2023/09/17 06:20:19;;;;;;;9.73;5.80;;;10.10;99.90;;;;;;4930125;29;20652;-87
2023/09/17 06:22:48;;;;;;;7.43;4.78;;;10.10;99.90;;;;;;4929126;29;20284;-88
2023/09/17 06:25:16;;;;;;;7.88;4.65;;;10.20;99.90;;;;;;4930812;29;20185;-89
2023/09/17 06:27:44;;;;;;;9.75;5.68;;;10.30;99.90;;;;;;4929951;29;20268;-89
2023/09/17 06:30:13;;;;;;;9.77;5.63;;;10.30;99.90;;;;;;4913010;29;20233;-88
2023/09/17 06:32:41;;;;;;;7.78;5.25;;;10.30;99.90;;;;;;4913180;29;20182;-89
2023/09/17 06:35:09;;;;;;;9.30;5.90;;;10.40;99.90;;;;;;4926554;29;20192;-87
2023/09/17 06:37:37;;;;;;;10.65;6.30;;;10.50;99.90;;;;;;4927716;29;20190;-88
2023/09/17 06:40:08;;;;;;;10.27;5.07;;;10.50;99.90;;;;;;4928890;29;20229;-89
2023/09/17 06:42:36;;;;;;;7.55;5.50;;;10.60;99.90;;;;;;4928831;29;20264;-89
2023/09/17 06:45:04;;;;;;;9.07;5.75;;;10.70;99.90;;;;;;4928437;29;20196;-89
2023/09/17 06:47:31;;;;;;;9.02;5.30;;;10.70;99.90;;;;;;4929095;29;20197;-89
2023/09/17 06:49:59;;;;;;;8.68;5.72;;;10.80;99.90;;;;;;4930134;29;20209;-89
2023/09/17 06:52:27;;;;;;;8.93;5.68;;;10.90;99.90;;;;;;4929478;29;20200;-89
2023/09/17 06:54:55;;;;;;;9.95;6.15;;;11.00;99.90;;;;;;4929754;29;20208;-89
2023/09/17 06:57:22;;;;;;;8.95;5.70;;;11.10;99.90;;;;;;4929456;29;20193;-88
2023/09/17 06:59:50;;;;;;;8.05;5.57;;;11.20;99.90;;;;;;4929044;29;20190;-89
2023/09/17 07:02:17;;;;;;;8.20;6.05;;;11.30;99.90;;;;;;4922554;29;20196;-90
2023/09/17 07:04:45;;;;;;;10.63;5.07;;;11.50;99.90;;;;;;4918876;29;20200;-91
2023/09/17 07:07:12;;;;;;;8.80;5.78;;;11.50;99.90;;;;;;4928547;29;20201;-89
2023/09/17 07:09:41;;;;;;;8.52;5.40;;;11.70;99.90;;;;;;4929281;29;20567;-91
2023/09/17 07:12:09;;;;;;;8.77;6.25;;;11.90;99.90;;;;;;4930995;29;20676;-88
2023/09/17 07:14:37;;;;;;;8.32;6.20;;;12.10;99.90;;;;;;4930953;29;20209;-89
2023/09/17 07:17:05;;;;;;;11.15;5.68;;;12.10;99.90;;;;;;4933621;29;20181;-89
2023/09/17 07:19:33;;;;;;;10.55;6.60;;;12.20;99.90;;;;;;4930906;29;20281;-90
2023/09/17 07:22:01;;;;;;;9.02;5.95;;;12.30;99.90;;;;;;4918342;29;20224;-89
2023/09/17 07:24:29;;;;;;;18.58;10.57;;;12.40;99.90;;;;;;4933601;29;20190;-88
2023/09/17 07:26:57;;;;;;;9.10;6.07;;;12.30;99.90;;;;;;4930402;29;20816;-89
2023/09/17 07:29:26;;;;;;;13.60;6.50;;;12.30;99.90;;;;;;4917895;29;20296;-86
2023/09/17 07:31:54;;;;;;;8.68;5.60;;;12.50;99.90;;;;;;4917640;29;20189;-89
2023/09/17 07:34:23;;;;;;;8.05;5.68;;;12.50;99.90;;;;;;4918193;29;20197;-89
2023/09/17 07:36:52;;;;;;;8.02;5.55;;;12.80;99.90;;;;;;4933600;29;20200;-89
2023/09/17 07:39:21;;;;;;;9.48;5.97;;;12.80;99.90;;;;;;4933529;29;20284;-89
2023/09/17 07:41:49;;;;;;;8.38;5.57;;;13.00;99.90;;;;;;4945643;29;20221;-89
2023/09/17 07:44:17;;;;;;;13.00;5.70;;;13.00;99.90;;;;;;4944758;29;20190;-89
2023/09/17 07:46:47;;;;;;;7.72;5.20;;;13.20;99.90;;;;;;4933357;29;20200;-90
2023/09/17 07:49:15;;;;;;;11.45;6.15;;;13.30;99.90;;;;;;4934583;29;20209;-89
2023/09/17 07:51:42;;;;;;;8.57;5.43;;;13.30;99.90;;;;;;4934160;29;20192;-87
2023/09/17 07:54:10;;;;;;;9.05;5.97;;;13.30;99.90;;;;;;4934204;29;20189;-87
2023/09/17 07:56:38;;;;;;;9.13;5.60;;;13.30;99.90;;;;;;4909227;29;20886;-89
2023/09/17 07:59:05;;;;;;;11.88;6.30;;;13.40;99.90;;;;;;4933675;29;20398;-87
2023/09/17 08:01:35;;;;;;;10.93;5.50;;;13.60;99.90;;;;;;4949241;29;20197;-89
2023/09/17 08:04:03;;;;;;;8.57;5.68;;;13.70;99.90;;;;;;4934098;29;20201;-87
2023/09/17 08:06:34;;;;;;;7.80;5.53;;;13.90;99.90;;;;;;4948580;29;20234;-86
2023/09/17 08:09:02;;;;;;;8.20;5.50;;;14.00;99.90;;;;;;4934641;29;20321;-87
2023/09/17 08:11:31;;;;;;;8.57;5.30;;;14.00;99.90;;;;;;4934682;29;20304;-87
2023/09/17 08:13:59;;;;;;;12.93;5.85;;;14.00;99.90;;;;;;4931673;29;20189;-87
2023/09/17 08:16:31;;;;;;;8.95;5.40;;;14.00;99.90;;;;;;4949533;29;20696;-88
2023/09/17 08:19:01;;;;;;;7.47;5.13;;;14.20;99.90;;;;;;4931697;29;20185;-87
2023/09/17 08:21:31;;;;;;;7.78;5.28;;;14.20;99.90;;;;;;4930234;29;20201;-86
2023/09/17 08:24:01;;;;;;;8.88;5.13;;;14.40;99.90;;;;;;4947858;28;20273;-86
2023/09/17 08:26:28;;;;;;;9.73;4.90;;;14.40;99.90;;;;;;4932057;29;20268;-86
2023/09/17 08:28:58;;;;;;;10.48;5.90;;;14.40;99.90;;;;;;4925701;29;20994;-88
2023/09/17 08:31:26;;;;;;;9.20;5.45;;;14.60;99.90;;;;;;4930670;29;20592;-88
2023/09/17 08:33:55;;;;;;;7.93;4.90;;;14.70;99.90;;;;;;4932162;29;20181;-88
2023/09/17 08:36:26;;;;;;;7.32;5.07;;;14.80;99.90;;;;;;4933277;29;20623;-87
2023/09/17 08:38:54;;;;;;;8.02;5.05;;;15.00;99.90;;;;;;4928654;29;20188;-88
2023/09/17 08:41:23;;;;;;;9.45;5.38;;;15.20;99.90;;;;;;4926843;29;20229;-88
2023/09/17 08:43:54;;;;;;;9.82;5.57;;;15.10;99.90;;;;;;4931081;29;20209;-89
2023/09/17 08:46:22;;;;;;;7.82;5.10;;;15.40;99.90;;;;;;4932275;29;20194;-88
2023/09/17 08:48:54;;;;;;;8.55;4.47;;;15.40;99.90;;;;;;4928580;29;20205;-89
2023/09/17 08:51:24;;;;;;;9.35;4.75;;;15.40;99.90;;;;;;4927755;29;20272;-86
2023/09/17 08:54:04;;;;;;;9.05;5.20;;;15.30;99.90;;;;;;4931541;29;20288;-89
2023/09/17 08:56:37;;;;;;;7.85;4.82;;;15.50;99.90;;;;;;4931076;29;20189;-87
2023/09/17 08:59:13;;;;;;;13.15;5.35;;;15.60;99.90;;;;;;4929611;29;20200;-86
2023/09/17 09:01:46;;;;;;;17.48;8.32;;;15.70;99.90;;;;;;4941143;29;20202;-88
2023/09/17 09:04:16;;;;;;;9.80;5.05;;;15.80;99.90;;;;;;4947136;29;20212;-87
2023/09/17 09:06:45;;;;;;;8.63;4.90;;;15.90;99.90;;;;;;4932274;29;21016;-88
2023/09/17 09:09:14;;;;;;;9.00;4.30;;;16.10;99.90;;;;;;4929117;29;20244;-88
2023/09/17 09:11:44;;;;;;;8.38;4.70;;;16.20;99.90;;;;;;4926142;29;20244;-89
2023/09/17 09:14:20;;;;;;;8.35;5.13;;;16.30;99.90;;;;;;4932536;29;20185;-86
2023/09/17 09:16:49;;;;;;;7.82;4.97;;;16.40;99.90;;;;;;4932576;29;20549;-89
2023/09/17 09:19:16;;;;;;;8.88;5.50;;;16.30;99.90;;;;;;4927405;29;20193;-88
2023/09/17 09:21:46;;;;;;;8.35;5.30;;;16.40;99.90;;;;;;4931696;29;20668;-85
2023/09/17 09:24:18;;;;;;;7.90;5.05;;;16.60;99.90;;;;;;4929280;29;20256;-88
2023/09/17 09:26:47;;;;;;;7.57;4.53;;;16.60;99.90;;;;;;4930309;29;20233;-89
2023/09/17 09:29:14;;;;;;;7.65;5.03;;;16.70;99.90;;;;;;4931314;29;20216;-86
2023/09/17 09:31:43;;;;;;;8.52;5.00;;;16.70;99.90;;;;;;4924525;29;20565;-86
2023/09/17 09:34:12;;;;;;;10.82;4.80;;;16.80;99.90;;;;;;4943646;29;20922;-85
2023/09/17 09:36:44;;;;;;;8.43;5.00;;;16.70;99.90;;;;;;4928174;29;20197;-86
2023/09/17 09:39:16;;;;;;;6.80;4.13;;;17.00;99.90;;;;;;4933595;29;20189;-89
2023/09/17 09:41:44;;;;;;;6.80;4.35;;;17.00;99.90;;;;;;4961149;28;20224;-88
2023/09/17 09:44:12;;;;;;;8.68;4.57;;;17.00;99.90;;;;;;4966140;28;20271;-87
2023/09/17 09:46:40;;;;;;;7.72;4.93;;;17.10;99.90;;;;;;4951808;28;20219;-87
2023/09/17 09:49:08;;;;;;;8.30;3.90;;;17.20;99.90;;;;;;4950802;28;20560;-87
2023/09/17 09:51:36;;;;;;;6.35;4.22;;;17.20;99.90;;;;;;4967530;28;20647;-85
2023/09/17 09:54:04;;;;;;;8.18;4.80;;;17.30;99.90;;;;;;4966170;28;20196;-87
2023/09/17 09:56:32;;;;;;;12.73;5.13;;;17.30;99.90;;;;;;4949235;28;20203;-86
2023/09/17 09:59:00;;;;;;;6.95;3.97;;;17.40;99.90;;;;;;4966070;28;20192;-88
2023/09/17 10:01:28;;;;;;;9.85;5.05;;;17.30;99.90;;;;;;4962494;28;20192;-84
2023/09/17 10:03:59;;;;;;;9.77;4.75;;;17.30;99.90;;;;;;4955389;28;20189;-86
2023/09/17 10:06:27;;;;;;;7.63;4.53;;;17.40;99.90;;;;;;4957814;28;20359;-86
2023/09/17 10:08:54;;;;;;;7.43;4.60;;;17.60;99.90;;;;;;4958764;28;20606;-87
2023/09/17 10:11:22;;;;;;;11.82;4.63;;;17.70;99.90;;;;;;4963241;28;20192;-86
2023/09/17 10:14:06;;;;;;;8.48;4.60;;;17.90;99.90;;;;;;4967535;28;20207;-85
2023/09/17 10:16:41;;;;;;;6.60;4.43;;;18.00;99.90;;;;;;4941636;28;20199;-88
2023/09/17 10:19:11;;;;;;;8.68;4.57;;;17.90;99.90;;;;;;4951164;28;20247;-86
2023/09/17 10:21:42;;;;;;;8.75;5.05;;;18.10;99.90;;;;;;4953246;28;20212;-88
2023/09/17 10:24:15;;;;;;;6.72;4.68;;;18.10;99.90;;;;;;4950460;28;20196;-89
2023/09/17 10:26:46;;;;;;;8.18;4.55;;;17.80;99.90;;;;;;4968031;28;20221;-88
2023/09/17 10:29:16;;;;;;;9.68;4.85;;;17.70;99.90;;;;;;4970716;28;20243;-88
2023/09/17 10:31:48;;;;;;;6.80;4.55;;;17.60;99.90;;;;;;4969010;28;20272;-89
2023/09/17 10:34:19;;;;;;;7.45;4.22;;;17.70;99.90;;;;;;4966096;28;20270;-88
2023/09/17 10:36:51;;;;;;;6.50;4.03;;;17.90;99.90;;;;;;4952298;28;20184;-87
2023/09/17 10:39:29;;;;;;;8.93;4.82;;;17.90;99.90;;;;;;4972364;28;20258;-87
2023/09/17 10:42:13;;;;;;;7.40;4.55;;;17.90;99.90;;;;;;4917587;29;20227;-87
2023/09/17 10:44:49;;;;;;;9.82;5.22;;;17.90;99.90;;;;;;4929876;29;20223;-85
2023/09/17 10:47:26;;;;;;;11.20;4.88;;;17.90;99.90;;;;;;4929993;29;20192;-87
2023/09/17 10:49:54;;;;;;;11.35;4.63;;;17.80;99.90;;;;;;4933258;29;20220;-87
2023/09/17 10:52:23;;;;;;;14.13;5.22;;;17.80;99.90;;;;;;4933799;29;20189;-87
2023/09/17 10:54:51;;;;;;;8.77;4.38;;;17.80;99.90;;;;;;4933378;29;20661;-87
2023/09/17 10:57:43;;;;;;;6.25;4.43;;;17.80;99.90;;;;;;4917482;29;20197;-84
2023/09/17 11:00:18;;;;;;;11.82;4.72;;;17.80;99.90;;;;;;4935669;29;20213;-86
2023/09/17 11:02:53;;;;;;;10.27;4.20;;;17.80;99.90;;;;;;4929937;29;20189;-87
2023/09/17 11:05:31;;;;;;;6.57;4.40;;;17.80;99.90;;;;;;4929850;29;20182;-87
2023/09/17 11:08:02;;;;;;;6.30;4.10;;;17.90;99.90;;;;;;4913040;29;20201;-87
2023/09/17 11:10:53;;;;;;;10.20;4.15;;;17.80;99.90;;;;;;4931460;29;20205;-88
2023/09/17 11:13:24;;;;;;;7.15;4.30;;;17.90;99.90;;;;;;4932035;29;20327;-88
2023/09/17 11:15:56;;;;;;;7.55;4.88;;;17.80;99.90;;;;;;4929412;29;20280;-87
2023/09/17 11:18:23;;;;;;;7.78;4.35;;;17.90;99.90;;;;;;4921257;29;20541;-87
2023/09/17 11:21:00;;;;;;;7.03;4.55;;;18.00;99.90;;;;;;4930992;29;20205;-86
2023/09/17 11:23:47;;;;;;;9.98;5.32;;;18.00;99.90;;;;;;4932057;29;20523;-87
2023/09/17 11:26:21;;;;;;;7.85;4.80;;;18.00;99.90;;;;;;4929367;29;20185;-87
2023/09/17 11:28:58;;;;;;;7.43;4.88;;;18.10;99.90;;;;;;4932046;29;20185;-87
2023/09/17 11:31:27;;;;;;;8.93;4.32;;;18.10;99.90;;;;;;4932206;29;20209;-85
2023/09/17 11:33:55;;;;;;;8.32;4.25;;;18.30;99.90;;;;;;4930677;29;20280;-88
2023/09/17 11:36:23;;;;;;;8.13;5.00;;;18.60;99.90;;;;;;4930766;29;20578;-87
2023/09/17 11:38:51;;;;;;;8.73;5.25;;;18.90;99.90;;;;;;4931562;29;20830;-87
2023/09/17 11:41:28;;;;;;;11.80;4.70;;;18.90;99.90;;;;;;4932413;29;20758;-86
2023/09/17 11:43:57;;;;;;;12.35;4.80;;;19.10;99.90;;;;;;4930675;29;20312;-86
2023/09/17 11:46:25;;;;;;;9.95;5.15;;;19.20;99.90;;;;;;4925684;29;20217;-88
2023/09/17 11:48:53;;;;;;;10.23;4.50;;;19.30;99.90;;;;;;4930376;29;20212;-87
2023/09/17 11:51:32;;;;;;;7.15;4.45;;;19.40;99.90;;;;;;4934136;29;20229;-86
2023/09/17 11:54:07;;;;;;;6.85;4.50;;;19.50;99.90;;;;;;4916903;29;20555;-88
2023/09/17 11:56:50;;;;;;;6.45;4.00;;;19.50;99.90;;;;;;4933351;29;20680;-88
2023/09/17 11:59:24;;;;;;;7.63;4.75;;;19.30;99.90;;;;;;4931388;29;20186;-87
2023/09/17 12:01:57;;;;;;;8.02;4.45;;;19.20;99.90;;;;;;4929860;29;20201;-86
2023/09/17 12:04:27;;;;;;;8.95;4.28;;;19.40;99.90;;;;;;4931466;29;20185;-87
2023/09/17 12:06:57;;;;;;;9.13;4.80;;;19.80;99.90;;;;;;4931580;29;20182;-87
2023/09/17 12:09:48;;;;;;;7.40;4.35;;;19.90;99.90;;;;;;4933614;29;20245;-86
2023/09/17 12:12:20;;;;;;;5.85;4.07;;;19.70;99.90;;;;;;4932516;29;21022;-88
2023/09/17 12:14:49;;;;;;;8.25;4.40;;;19.70;99.90;;;;;;4931691;29;20553;-87
2023/09/17 12:17:18;;;;;;;6.63;4.00;;;20.00;99.90;;;;;;4918203;29;20218;-86
2023/09/17 12:19:48;;;;;;;7.25;4.22;;;20.00;99.90;;;;;;4934526;29;20200;-86
2023/09/17 12:22:16;;;;;;;10.07;4.68;;;20.10;99.90;;;;;;4927528;29;20201;-85
2023/09/17 12:24:59;;;;;;;6.80;4.28;;;20.10;99.90;;;;;;4923140;29;20284;-83
2023/09/17 12:29:55;;;;;;;7.95;4.45;;;19.90;99.90;;;;;;4926040;29;20542;-86
2023/09/17 12:32:29;;;;;;;6.88;4.50;;;19.80;99.90;;;;;;4928697;29;20250;-86
2023/09/17 12:35:03;;;;;;;5.80;4.00;;;19.60;99.90;;;;;;4928856;29;20193;-85
2023/09/17 12:37:31;;;;;;;7.10;4.05;;;19.50;99.90;;;;;;4927459;29;20199;-87
2023/09/17 12:39:59;;;;;;;6.93;3.70;;;19.50;99.90;;;;;;4953020;28;20614;-86
2023/09/17 12:42:27;;;;;;;6.93;4.07;;;19.50;99.90;;;;;;4963630;28;20248;-86
2023/09/17 12:44:55;;;;;;;7.43;4.55;;;19.40;99.90;;;;;;4965917;28;20268;-84
2023/09/17 12:47:24;;;;;;;10.75;3.90;;;19.70;99.90;;;;;;4962877;28;20271;-86
2023/09/17 12:49:54;;;;;;;8.45;4.20;;;20.10;99.90;;;;;;4958586;28;20196;-83
2023/09/17 12:52:23;;;;;;;10.05;4.25;;;20.20;99.90;;;;;;4961295;28;20195;-85
2023/09/17 12:54:53;;;;;;;9.27;4.28;;;20.40;99.90;;;;;;4967986;28;20199;-86
2023/09/17 12:57:22;;;;;;;9.20;4.50;;;20.50;99.90;;;;;;4945055;28;20781;-85
2023/09/17 12:59:51;;;;;;;7.05;4.03;;;20.70;99.90;;;;;;4943274;28;20250;-85
2023/09/17 13:02:34;;;;;;;7.45;4.40;;;20.80;99.90;;;;;;4942015;28;20188;-84